Terminal Aerodrome Forecast
Issued by NWS Northern Indiana

Home | Current Version | Previous Version | Graphics & Text | Print | Product List | Glossary On
Versions: 1 2 3 4 5 6 7 8 9 10 11 12 13 14 15 16 17
000
FTUS43 KIWX 181700 RRA
TAFFWA
TAF
KFWA 181739Z 1818/1918 33012G18KT P6SM VCSH BKN030
     FM190000 32008KT P6SM BKN035
     FM190600 VRB02KT P6SM SKC
     FM191500 24008KT P6SM SCT025=

USA.gov is the U.S. government's official web portal to all federal, state and local government web resources and services.